createdAt,value
2023-02-23T00:02:24.922Z,76.70
2023-02-23T00:04:53.579Z,82.83
2023-02-23T00:07:22.408Z,83.77
2023-02-23T00:09:52.969Z,66.10
2023-02-23T00:12:24.102Z,73.17
2023-02-23T00:14:53.007Z,65.23
2023-02-23T00:17:24.727Z,73.47
2023-02-23T00:19:55.402Z,62.80
2023-02-23T00:22:26.250Z,75.47
2023-02-23T00:24:54.967Z,70.40
2023-02-23T00:27:23.632Z,72.00
2023-02-23T00:29:52.487Z,72.23
2023-02-23T00:32:22.952Z,82.00
2023-02-23T00:34:51.959Z,67.60
2023-02-23T00:37:22.732Z,62.93
2023-02-23T00:39:52.112Z,64.40
2023-02-23T00:42:20.835Z,68.90
2023-02-23T00:44:49.788Z,77.57
2023-02-23T00:47:18.502Z,72.97
2023-02-23T00:49:48.587Z,63.60
2023-02-23T00:52:17.264Z,72.10
2023-02-23T00:54:46.235Z,67.20
2023-02-23T00:57:15.039Z,73.10
2023-02-23T00:59:43.741Z,69.53
2023-02-23T01:02:12.478Z,58.53
2023-02-23T01:04:41.205Z,74.93
2023-02-23T01:07:13.053Z,80.43
2023-02-23T01:09:42.609Z,71.93
2023-02-23T01:12:11.326Z,65.37
2023-02-23T01:14:40.535Z,75.43
2023-02-23T01:17:09.232Z,58.47
2023-02-23T01:19:38.084Z,74.10
2023-02-23T01:22:06.948Z,71.23
2023-02-23T01:24:38.750Z,65.57
2023-02-23T01:27:07.471Z,92.47
2023-02-23T01:29:36.141Z,62.17
2023-02-23T01:32:07.482Z,65.97
2023-02-23T01:34:36.318Z,81.87
2023-02-23T01:37:05.181Z,68.10
2023-02-23T01:39:34.411Z,68.10
2023-02-23T01:42:05.376Z,79.37
2023-02-23T01:45:16.662Z,68.23
2023-02-23T01:47:45.413Z,67.43
2023-02-23T01:50:16.451Z,62.17
2023-02-23T01:52:46.073Z,69.93
2023-02-23T01:55:23.101Z,59.60
2023-02-23T01:57:56.962Z,62.73
2023-02-23T02:00:27.422Z,74.83
2023-02-23T02:02:58.250Z,58.00
2023-02-23T02:05:28.711Z,62.23
2023-02-23T02:07:59.612Z,57.50
2023-02-23T02:10:40.996Z,66.57
2023-02-23T02:13:14.905Z,49.87
2023-02-23T02:15:56.596Z,41.93
2023-02-23T02:18:32.419Z,75.90
2023-02-23T02:21:16.503Z,60.70
2023-02-23T02:24:22.121Z,59.20
2023-02-23T02:27:02.662Z,51.57
2023-02-23T02:30:23.148Z,62.97
2023-02-23T02:33:23.284Z,52.47
2023-02-23T02:36:18.471Z,52.77
2023-02-23T02:38:56.687Z,50.77
2023-02-23T02:41:37.031Z,68.53
2023-02-23T02:44:15.575Z,62.20
2023-02-23T02:46:49.962Z,59.67
2023-02-23T02:49:27.718Z,59.80
2023-02-23T02:52:02.058Z,51.60
2023-02-23T02:54:35.242Z,65.23
2023-02-23T02:57:06.009Z,55.33
2023-02-23T03:00:02.219Z,65.53
2023-02-23T03:02:50.355Z,54.80
2023-02-23T03:05:38.682Z,57.17
2023-02-23T03:08:34.190Z,43.70
2023-02-23T03:11:24.388Z,56.60
2023-02-23T03:14:23.097Z,53.23
2023-02-23T03:17:18.233Z,60.70
2023-02-23T03:20:15.698Z,57.43
2023-02-23T03:23:12.512Z,57.40
2023-02-23T03:26:08.080Z,51.43
2023-02-23T03:29:01.354Z,41.73
2023-02-23T03:31:56.044Z,54.20
2023-02-23T03:34:47.610Z,57.43
2023-02-23T03:37:38.708Z,54.30
2023-02-23T03:40:30.512Z,51.40
2023-02-23T03:43:20.543Z,60.27
2023-02-23T03:46:08.925Z,50.23
2023-02-23T03:48:56.171Z,58.70
2023-02-23T03:51:44.881Z,66.77
2023-02-23T03:54:35.523Z,66.00
2023-02-23T03:57:26.518Z,54.40
2023-02-23T04:00:15.838Z,64.57
2023-02-23T04:03:08.812Z,69.13
2023-02-23T04:05:58.297Z,71.17
2023-02-23T04:08:50.074Z,54.20
2023-02-23T04:11:42.426Z,56.97
2023-02-23T04:14:17.444Z,58.50
2023-02-23T04:16:45.712Z,60.27
2023-02-23T04:19:15.808Z,54.37
2023-02-23T04:21:44.495Z,66.13
2023-02-23T04:24:13.355Z,56.07
2023-02-23T04:26:42.393Z,61.00
2023-02-23T04:29:12.319Z,52.87
2023-02-23T04:31:41.808Z,64.83
2023-02-23T04:34:10.515Z,64.93
2023-02-23T04:36:40.791Z,68.00
2023-02-23T04:39:09.392Z,66.63
2023-02-23T04:41:38.192Z,70.40
2023-02-23T04:44:07.077Z,71.07
2023-02-23T04:46:35.872Z,74.67
2023-02-23T04:49:04.574Z,49.67
2023-02-23T04:51:34.045Z,65.97
2023-02-23T04:54:06.042Z,64.23
2023-02-23T04:56:34.769Z,62.53
2023-02-23T04:59:03.411Z,63.17
2023-02-23T05:01:32.803Z,58.77
2023-02-23T05:04:01.442Z,64.27
2023-02-23T05:06:30.485Z,63.53
2023-02-23T05:08:59.301Z,58.03
2023-02-23T05:11:29.338Z,61.40
2023-02-23T05:13:57.990Z,67.90
2023-02-23T05:16:26.750Z,75.23
2023-02-23T05:18:55.539Z,60.03
2023-02-23T05:21:25.013Z,59.67
2023-02-23T05:24:32.994Z,68.23
2023-02-23T05:27:03.152Z,54.93
2023-02-23T05:29:31.898Z,52.87
2023-02-23T05:32:00.729Z,69.83
2023-02-23T05:34:29.758Z,68.47
2023-02-23T05:36:58.720Z,73.17
2023-02-23T05:39:29.032Z,58.07
2023-02-23T05:41:57.686Z,65.50
2023-02-23T05:44:27.933Z,72.70
2023-02-23T05:46:57.765Z,81.77
2023-02-23T05:49:26.330Z,74.73
2023-02-23T05:51:54.903Z,68.67
2023-02-23T05:54:23.589Z,62.40
2023-02-23T05:56:52.204Z,80.03
2023-02-23T05:59:20.962Z,69.90
2023-02-23T06:01:51.108Z,68.73
2023-02-23T06:04:19.998Z,76.47
2023-02-23T06:06:50.950Z,68.87
2023-02-23T06:09:19.734Z,61.73
2023-02-23T06:11:48.630Z,64.83
2023-02-23T06:14:17.453Z,65.07
2023-02-23T06:16:48.379Z,69.67
2023-02-23T06:19:18.824Z,61.97
2023-02-23T06:21:47.418Z,61.50
2023-02-23T06:24:16.073Z,62.03
2023-02-23T06:26:44.672Z,57.70
2023-02-23T06:29:13.652Z,67.03
2023-02-23T06:31:42.396Z,70.20
2023-02-23T06:34:12.470Z,66.63
2023-02-23T06:36:43.122Z,68.20
2023-02-23T06:39:12.913Z,59.57
2023-02-23T06:41:41.527Z,68.47
2023-02-23T06:44:10.187Z,65.80
2023-02-23T06:46:38.843Z,67.50
2023-02-23T06:49:07.839Z,59.93
2023-02-23T06:51:36.523Z,72.70
2023-02-23T06:54:06.772Z,52.07
2023-02-23T06:56:35.502Z,75.77
2023-02-23T06:59:04.302Z,75.00
2023-02-23T07:01:32.950Z,62.13
2023-02-23T07:04:01.661Z,63.80
2023-02-23T07:06:31.298Z,68.53
2023-02-23T07:08:59.966Z,75.17
2023-02-23T07:11:29.987Z,75.43
2023-02-23T07:13:59.400Z,65.53
2023-02-23T07:16:28.813Z,58.47
2023-02-23T07:18:57.507Z,51.23
2023-02-23T07:21:26.122Z,66.37
2023-02-23T07:23:54.808Z,49.27
2023-02-23T07:26:23.434Z,65.23
2023-02-23T07:28:54.236Z,50.63
2023-02-23T07:31:23.171Z,69.40
2023-02-23T07:33:53.006Z,55.07
2023-02-23T07:36:21.677Z,55.83
2023-02-23T07:38:50.662Z,49.97
2023-02-23T07:41:19.716Z,68.17
2023-02-23T07:43:48.633Z,46.97
2023-02-23T07:46:18.723Z,56.40
2023-02-23T07:48:47.363Z,50.83
2023-02-23T07:51:17.803Z,58.33
2023-02-23T07:53:46.682Z,68.23
2023-02-23T07:56:15.274Z,54.37
2023-02-23T07:58:45.576Z,56.97
2023-02-23T08:01:15.097Z,52.90
2023-02-23T08:03:49.635Z,50.20
2023-02-23T08:06:19.432Z,67.03
2023-02-23T08:08:48.160Z,53.00
2023-02-23T08:11:17.217Z,55.23
2023-02-23T08:13:46.039Z,51.63
2023-02-23T08:16:14.906Z,63.77
2023-02-23T08:18:44.952Z,55.80
2023-02-23T08:21:13.539Z,56.63
2023-02-23T08:23:42.695Z,60.63
2023-02-23T08:26:11.710Z,64.00
2023-02-23T08:28:41.871Z,70.60
2023-02-23T08:31:11.669Z,55.17
2023-02-23T08:33:41.228Z,62.57
2023-02-23T08:36:11.336Z,63.83
2023-02-23T08:38:39.926Z,63.27
2023-02-23T08:41:08.565Z,65.10
2023-02-23T08:43:39.334Z,66.93
2023-02-23T08:46:08.040Z,55.10
2023-02-23T08:48:39.128Z,61.77
2023-02-23T08:51:08.122Z,62.90
2023-02-23T08:53:38.145Z,66.23
2023-02-23T08:56:08.548Z,56.73
2023-02-23T08:58:37.693Z,67.53
2023-02-23T09:01:06.939Z,60.20
2023-02-23T09:03:38.283Z,57.40
2023-02-23T09:06:10.508Z,61.73
2023-02-23T09:08:40.554Z,58.97
2023-02-23T09:11:09.146Z,61.97
2023-02-23T09:13:37.791Z,56.57
2023-02-23T09:16:07.778Z,58.30
2023-02-23T09:18:36.664Z,57.63
2023-02-23T09:21:08.519Z,68.13
2023-02-23T09:23:37.644Z,66.33
2023-02-23T09:26:09.634Z,58.50
2023-02-23T09:28:40.698Z,69.10
2023-02-23T09:31:11.603Z,55.07
2023-02-23T09:33:40.678Z,57.10
2023-02-23T09:36:12.816Z,58.07
2023-02-23T09:38:41.452Z,59.97
2023-02-23T09:41:39.272Z,58.70
2023-02-23T09:44:19.521Z,60.03
2023-02-23T09:46:55.360Z,49.00
2023-02-23T09:49:29.257Z,51.90
2023-02-23T09:52:01.154Z,54.43
2023-02-23T09:54:33.549Z,67.50
2023-02-23T09:57:06.337Z,52.53
2023-02-23T09:59:37.071Z,58.43
2023-02-23T10:02:19.593Z,50.60
2023-02-23T10:04:51.172Z,61.60
2023-02-23T10:07:27.543Z,51.30
2023-02-23T10:10:08.948Z,44.90
2023-02-23T10:12:50.764Z,59.30
2023-02-23T10:15:28.790Z,50.50
2023-02-23T10:18:05.105Z,44.93
2023-02-23T10:20:42.025Z,55.27
2023-02-23T10:23:16.277Z,52.43
2023-02-23T10:25:48.502Z,59.53
2023-02-23T10:28:20.270Z,48.63
2023-02-23T10:30:50.837Z,56.07
2023-02-23T10:33:25.577Z,47.87
2023-02-23T10:36:12.396Z,56.87
2023-02-23T10:38:42.180Z,61.90
2023-02-23T10:41:14.636Z,53.70
2023-02-23T10:43:44.915Z,56.73
2023-02-23T10:46:22.435Z,45.30
2023-02-23T10:48:55.718Z,63.97
2023-02-23T10:51:29.534Z,54.63
2023-02-23T10:54:05.074Z,53.73
2023-02-23T10:56:45.688Z,54.30
2023-02-23T10:59:20.918Z,43.67
2023-02-23T11:02:01.304Z,50.63
2023-02-23T11:04:32.345Z,50.10
2023-02-23T11:07:10.988Z,54.20
2023-02-23T11:09:47.202Z,53.57
2023-02-23T11:12:22.979Z,50.80
2023-02-23T11:14:54.495Z,49.97
2023-02-23T11:17:30.269Z,45.90
2023-02-23T11:20:04.982Z,46.70
2023-02-23T11:22:36.041Z,56.63
2023-02-23T11:25:16.730Z,45.93
2023-02-23T11:27:51.416Z,48.10
2023-02-23T11:30:24.566Z,52.03
2023-02-23T11:32:55.770Z,47.03
2023-02-23T11:35:31.485Z,50.80
2023-02-23T11:38:00.164Z,46.70
2023-02-23T11:40:31.940Z,49.47
2023-02-23T11:43:10.158Z,58.53
2023-02-23T11:45:48.481Z,51.30
2023-02-23T11:48:23.515Z,41.27
2023-02-23T11:50:53.026Z,40.33
2023-02-23T11:53:29.693Z,46.20
2023-02-23T11:56:08.053Z,42.63
2023-02-23T11:58:40.699Z,52.30
2023-02-23T12:01:13.811Z,47.73
2023-02-23T12:03:48.021Z,42.07
2023-02-23T12:06:30.063Z,42.97
2023-02-23T12:09:05.552Z,49.43
2023-02-23T12:11:38.589Z,42.87
2023-02-23T12:14:15.594Z,45.47
2023-02-23T12:16:50.289Z,53.67
2023-02-23T12:19:28.883Z,42.67
2023-02-23T12:22:04.738Z,39.50
2023-02-23T12:24:42.101Z,39.63
2023-02-23T12:27:15.233Z,47.17
2023-02-23T12:30:01.084Z,44.40
2023-02-23T12:32:43.545Z,41.53
2023-02-23T12:35:16.079Z,46.50
2023-02-23T12:37:48.822Z,54.87
2023-02-23T12:40:22.683Z,48.40
2023-02-23T12:43:00.213Z,45.17
2023-02-23T12:45:37.082Z,48.50
2023-02-23T12:48:16.226Z,43.53
2023-02-23T12:50:52.945Z,43.30
2023-02-23T12:53:26.359Z,42.50
2023-02-23T12:56:13.266Z,42.73
2023-02-23T12:58:51.321Z,54.33
2023-02-23T13:01:26.013Z,40.13
2023-02-23T13:04:09.549Z,32.90
2023-02-23T13:06:48.867Z,44.30
2023-02-23T13:09:33.827Z,33.70
2023-02-23T13:12:22.045Z,36.50
2023-02-23T13:14:57.307Z,38.03
2023-02-23T13:17:38.187Z,33.50
2023-02-23T13:20:18.667Z,36.57
2023-02-23T13:22:52.488Z,40.67
2023-02-23T13:25:36.936Z,40.00
2023-02-23T13:28:07.899Z,30.53
2023-02-23T13:30:37.040Z,42.83
2023-02-23T13:33:20.616Z,37.00
2023-02-23T13:35:51.086Z,35.60
2023-02-23T13:38:24.705Z,30.80
2023-02-23T13:41:00.115Z,31.40
2023-02-23T13:43:35.403Z,34.30
2023-02-23T13:46:17.421Z,32.63
2023-02-23T13:48:58.004Z,42.43
2023-02-23T13:51:41.794Z,34.23
2023-02-23T13:54:25.422Z,33.97
2023-02-23T13:56:57.601Z,32.90
2023-02-23T13:59:29.717Z,32.60
2023-02-23T14:02:03.221Z,28.90
2023-02-23T14:04:37.526Z,33.30
2023-02-23T14:07:22.499Z,35.00
2023-02-23T14:09:56.911Z,40.17
2023-02-23T14:12:27.838Z,38.23
2023-02-23T14:14:56.487Z,41.23
2023-02-23T14:17:42.617Z,28.00
2023-02-23T14:20:40.140Z,27.60
2023-02-23T14:23:51.696Z,32.17
2023-02-23T14:26:39.326Z,30.00
2023-02-23T14:29:27.598Z,34.60
2023-02-23T14:31:59.179Z,23.33
2023-02-23T14:34:53.394Z,35.87
2023-02-23T14:37:26.859Z,26.30
2023-02-23T14:40:01.398Z,29.00
2023-02-23T14:42:30.890Z,28.03
2023-02-23T14:45:06.162Z,28.73
2023-02-23T14:47:46.896Z,32.20
2023-02-23T14:50:24.794Z,23.67
2023-02-23T14:52:55.599Z,34.40
2023-02-23T14:55:29.172Z,27.87
2023-02-23T14:57:59.551Z,27.73
2023-02-23T15:00:32.521Z,28.17
2023-02-23T15:03:03.252Z,35.10
2023-02-23T15:05:34.800Z,22.53
2023-02-23T15:08:07.215Z,30.87
2023-02-23T15:10:39.569Z,43.40
2023-02-23T15:13:15.433Z,35.33
2023-02-23T15:15:46.524Z,31.23
2023-02-23T15:18:23.106Z,35.03
2023-02-23T15:20:52.023Z,34.00
2023-02-23T15:23:21.793Z,36.30
2023-02-23T15:25:52.945Z,37.27
2023-02-23T15:28:25.232Z,37.00
2023-02-23T15:30:55.977Z,32.67
2023-02-23T15:33:28.685Z,32.70
2023-02-23T15:36:08.096Z,33.40
2023-02-23T15:38:44.162Z,47.63
2023-02-23T15:41:25.312Z,33.60
2023-02-23T15:43:54.401Z,41.47
2023-02-23T15:46:26.671Z,44.87
2023-02-23T15:49:00.788Z,47.63
2023-02-23T15:51:35.743Z,53.93
2023-02-23T15:54:13.705Z,56.37
2023-02-23T15:56:46.943Z,43.07
2023-02-23T15:59:23.958Z,42.90
2023-02-23T16:01:55.434Z,53.57
2023-02-23T16:04:29.199Z,57.23
2023-02-23T16:07:11.767Z,61.93
2023-02-23T16:09:47.829Z,64.60
2023-02-23T16:12:20.892Z,53.53
2023-02-23T16:14:54.100Z,56.27
2023-02-23T16:17:29.145Z,52.83
2023-02-23T16:20:08.037Z,47.80
2023-02-23T16:22:39.987Z,31.47
2023-02-23T16:25:13.578Z,16.80
2023-02-23T16:27:44.621Z,18.03
2023-02-23T16:30:23.357Z,19.03
2023-02-23T16:33:06.576Z,17.70
2023-02-23T16:35:39.594Z,24.47
2023-02-23T16:38:14.734Z,21.03
2023-02-23T16:40:45.142Z,29.93
2023-02-23T16:43:15.196Z,25.37
2023-02-23T16:45:44.771Z,24.57
2023-02-23T16:48:15.328Z,23.83
2023-02-23T16:50:45.905Z,16.87
2023-02-23T16:53:15.362Z,26.57
2023-02-23T16:55:49.806Z,28.57
2023-02-23T16:58:23.195Z,21.77
2023-02-23T17:00:52.268Z,42.90
2023-02-23T17:03:24.304Z,16.50
2023-02-23T17:05:53.660Z,30.43
2023-02-23T17:08:22.293Z,19.73
2023-02-23T17:10:53.523Z,29.57
2023-02-23T17:13:25.772Z,29.13
2023-02-23T17:15:56.478Z,30.77
2023-02-23T17:18:27.399Z,30.33
2023-02-23T17:20:57.582Z,29.63
2023-02-23T17:23:30.125Z,26.30
2023-02-23T17:25:59.011Z,36.07
2023-02-23T17:28:30.091Z,28.37
2023-02-23T17:30:58.789Z,44.03
2023-02-23T17:33:28.078Z,27.83
2023-02-23T17:35:56.790Z,39.80
2023-02-23T17:38:33.829Z,34.63
2023-02-23T17:41:03.755Z,24.13
2023-02-23T17:43:33.751Z,30.57
2023-02-23T17:46:02.941Z,28.30
2023-02-23T17:48:34.674Z,21.93
2023-02-23T17:51:08.677Z,45.40
2023-02-23T17:53:37.876Z,29.70
2023-02-23T17:56:07.201Z,19.80
2023-02-23T17:58:38.010Z,21.03
2023-02-23T18:01:08.637Z,36.23
2023-02-23T18:03:38.663Z,24.33
2023-02-23T18:06:08.883Z,27.73
2023-02-23T18:08:38.685Z,22.70
2023-02-23T18:11:07.674Z,27.57
2023-02-23T18:13:38.138Z,24.80
2023-02-23T18:16:09.960Z,33.30
2023-02-23T18:18:43.664Z,28.23
2023-02-23T18:21:14.148Z,29.87
2023-02-23T18:23:43.336Z,32.67
2023-02-23T18:26:14.687Z,29.20
2023-02-23T18:28:45.914Z,27.50
2023-02-23T18:31:16.873Z,31.20
2023-02-23T18:33:46.336Z,23.00
2023-02-23T18:36:19.932Z,25.33
2023-02-23T18:38:49.675Z,32.90
2023-02-23T18:41:19.540Z,32.07
2023-02-23T18:43:50.608Z,19.77
2023-02-23T18:46:19.752Z,20.93
2023-02-23T18:48:50.601Z,29.67
2023-02-23T18:51:20.081Z,31.37
2023-02-23T18:53:49.741Z,35.43
2023-02-23T18:56:23.146Z,24.37
2023-02-23T18:58:55.338Z,36.93
2023-02-23T19:01:26.757Z,30.17
2023-02-23T19:03:56.563Z,41.47
2023-02-23T19:06:25.940Z,21.77
2023-02-23T19:08:57.378Z,50.93
2023-02-23T19:11:28.198Z,33.13
2023-02-23T19:13:59.865Z,37.47
2023-02-23T19:16:31.210Z,31.60
2023-02-23T19:19:00.769Z,34.60
2023-02-23T19:21:29.498Z,30.47
2023-02-23T19:23:58.371Z,30.10
2023-02-23T19:26:29.452Z,29.77
2023-02-23T19:28:59.708Z,29.73
2023-02-23T19:31:28.847Z,27.73
2023-02-23T19:33:59.750Z,24.77
2023-02-23T19:36:31.732Z,29.83
2023-02-23T19:39:11.091Z,34.40
2023-02-23T19:41:40.983Z,31.37
2023-02-23T19:44:11.492Z,24.60
2023-02-23T19:46:42.968Z,31.87
2023-02-23T19:49:12.081Z,29.63
2023-02-23T19:51:40.815Z,27.47
2023-02-23T19:54:09.536Z,24.43
2023-02-23T19:56:38.746Z,20.60
2023-02-23T19:59:07.512Z,34.23
2023-02-23T20:01:37.937Z,18.03
2023-02-23T20:04:09.125Z,33.77
2023-02-23T20:06:44.701Z,27.00
2023-02-23T20:09:13.773Z,25.53
2023-02-23T20:11:43.099Z,29.53
2023-02-23T20:14:12.525Z,29.10
2023-02-23T20:16:42.624Z,20.77
2023-02-23T20:19:11.804Z,27.07
2023-02-23T20:21:42.216Z,28.60
2023-02-23T20:24:12.794Z,23.50
2023-02-23T20:26:41.600Z,40.63
2023-02-23T20:29:13.633Z,30.63
2023-02-23T20:31:50.610Z,27.20
2023-02-23T20:34:24.102Z,19.13
2023-02-23T20:36:53.792Z,26.00
2023-02-23T20:39:26.926Z,25.07
2023-02-23T20:41:58.107Z,32.53
2023-02-23T20:44:28.143Z,34.57
2023-02-23T20:46:58.572Z,32.87
2023-02-23T20:49:27.639Z,26.83
2023-02-23T20:52:04.399Z,25.77
2023-02-23T20:54:33.463Z,29.33
2023-02-23T20:57:07.655Z,34.53
2023-02-23T20:59:37.458Z,18.97
2023-02-23T21:02:11.082Z,20.73
2023-02-23T21:04:39.836Z,32.90
2023-02-23T21:07:09.160Z,30.30
2023-02-23T21:09:40.368Z,25.73
2023-02-23T21:12:09.739Z,31.50
2023-02-23T21:14:38.395Z,23.93
2023-02-23T21:17:09.658Z,23.57
2023-02-23T21:19:39.136Z,25.30
2023-02-23T21:22:09.117Z,36.47
2023-02-23T21:24:41.432Z,29.67
2023-02-23T21:27:12.813Z,26.50
2023-02-23T21:29:42.030Z,26.70
2023-02-23T21:32:14.913Z,25.53
2023-02-23T21:34:44.063Z,16.13
2023-02-23T21:37:13.954Z,21.40
2023-02-23T21:39:43.014Z,14.93
2023-02-23T21:42:11.734Z,31.57
2023-02-23T21:44:44.533Z,23.77
2023-02-23T21:47:15.397Z,26.63
2023-02-23T21:49:49.649Z,25.87
2023-02-23T21:52:18.607Z,26.57
2023-02-23T21:54:58.721Z,21.47
2023-02-23T21:57:29.091Z,19.07
2023-02-23T21:59:57.764Z,16.47
2023-02-23T22:02:31.743Z,20.33
2023-02-23T22:05:00.483Z,43.20
2023-02-23T22:07:29.801Z,21.60
2023-02-23T22:09:58.780Z,29.30
2023-02-23T22:12:28.607Z,20.97
2023-02-23T22:14:57.253Z,30.20
2023-02-23T22:17:27.314Z,21.17
2023-02-23T22:19:56.388Z,31.33
2023-02-23T22:22:25.849Z,20.63
2023-02-23T22:24:54.525Z,32.03
2023-02-23T22:27:23.131Z,11.43
2023-02-23T22:29:51.875Z,27.20
2023-02-23T22:32:21.192Z,28.13
2023-02-23T22:34:51.538Z,18.23
2023-02-23T22:37:21.922Z,19.40
2023-02-23T22:39:52.217Z,24.43
2023-02-23T22:42:21.182Z,13.77
2023-02-23T22:44:49.927Z,25.43
2023-02-23T22:47:18.552Z,22.23
2023-02-23T22:49:48.016Z,12.97
2023-02-23T22:52:17.975Z,15.30
2023-02-23T22:54:48.123Z,21.37
2023-02-23T22:57:16.742Z,14.63
2023-02-23T22:59:54.840Z,16.90
2023-02-23T23:02:23.554Z,19.73
2023-02-23T23:04:54.266Z,18.40
2023-02-23T23:07:26.008Z,19.10
2023-02-23T23:09:54.995Z,21.27
2023-02-23T23:12:23.677Z,16.73
2023-02-23T23:14:52.483Z,18.17
2023-02-23T23:17:22.435Z,10.67
2023-02-23T23:19:51.326Z,15.37
2023-02-23T23:22:20.481Z,17.27
2023-02-23T23:24:51.027Z,21.63
2023-02-23T23:27:21.184Z,18.30
2023-02-23T23:29:50.058Z,26.57
2023-02-23T23:32:27.437Z,23.03
2023-02-23T23:34:58.553Z,38.97
2023-02-23T23:37:29.162Z,26.73
2023-02-23T23:40:00.313Z,34.33
2023-02-23T23:42:28.999Z,16.50
2023-02-23T23:44:57.636Z,26.67
2023-02-23T23:47:27.902Z,22.50
2023-02-23T23:49:56.887Z,39.63
2023-02-23T23:52:25.525Z,37.73
2023-02-23T23:54:54.141Z,29.07
2023-02-23T23:57:24.389Z,21.80
2023-02-23T23:59:53.013Z,29.53
